M I D A S
Marine Information and Data Acquisition System
Tripno 1600 of the Zeeleeuw from 2008-10-31 07:38:19 to 2008-10-31 15:32:40
Back to CruiseResearch ActivitiesStationsMapUnderway DataData graphs

EquipmentUnitsComment
TimeDGPSUTC
LatitudeDGPSDM.mWGS84
LongitudeDGPSDM.mWGS84
TemperatureSBE03/SBE38deg celciusITS90
ConductivitySBE21S/mITS90
SalinitySBE21 Practical Salinity Units
ChlorophylAChelsea fluorimeterg/lCalibrated in Aceton
Missing or incorrect values are displayed as -999
Sea surface data collected by the RV Zeeleeuw from 2008-10-31 07:39:31 to 2008-10-31 15:34:55
Time Latitude Longitude Temperature Conductivity Salinity ChlorophylA
2008-10-31 07:40:41 51°13.64 2°55.965 -999 0.05569 0.33888 -1.279161
2008-10-31 07:41:41 51°13.671 2°55.855 -999 0.055278 0.336301 -1.244337
2008-10-31 07:42:40 51°13.694 2°55.798 -999 0.05394 0.32791 -1.244337
2008-10-31 07:43:41 51°13.698 2°55.741 -999 0.056822 0.345989 -1.244337
2008-10-31 07:44:40 51°13.7 2°55.729 -999 0.057748 0.351832 -1.279161
2008-10-31 07:45:38 51°13.735 2°55.73 -999 0.060938 0.372028 -1.244337
2008-10-31 07:46:38 51°13.828 2°55.64 -999 0.050441 0.305937 -1.244337
2008-10-31 07:47:38 51°13.929 2°55.553 -999 0.053631 0.325934 -1.279161
2008-10-31 07:48:38 51°14.029 2°55.477 -999 0.053734 0.326579 -1.279161
2008-10-31 07:49:38 51°14.16 2°55.374 -999 0.053837 0.327218 -1.279161
2008-10-31 07:50:38 51°14.298 2°55.188 -999 0.058777 0.358225 -1.279161
2008-10-31 07:51:38 51°14.404 2°54.929 -999 0.059806 0.364554 -1.279161
2008-10-31 07:52:38 51°14.555 2°54.722 -999 0.086564 0.535278 -1.279161
2008-10-31 07:53:38 51°14.719 2°54.534 -999 0.088828 0.549743 -1.244337
2008-10-31 07:54:38 51°14.885 2°54.358 -999 0.099531 0.619218 -1.279161
2008-10-31 07:55:38 51°15.051 2°54.201 -999 0.127628 0.804066 -1.279161
2008-10-31 07:56:38 51°15.218 2°54.042 -999 0.105912 0.661774 -1.244337
2008-10-31 07:57:38 51°15.386 2°53.88 -999 0.095209 0.592023 -1.244337
2008-10-31 07:58:38 51°15.555 2°53.718 -999 0.082653 0.511885 -1.279161
2008-10-31 07:59:38 51°15.728 2°53.568 -999 0.085843 0.532585 -1.279161
2008-10-31 08:00:38 51°15.901 2°53.416 -999 0.089034 0.553028 -1.279161
2008-10-31 08:01:38 51°16.074 2°53.266 -999 0.089548 0.55653 -1.279161
2008-10-31 08:02:38 51°16.245 2°53.108 -999 0.111264 0.697104 -1.279161
2008-10-31 08:03:38 51°16.417 2°52.957 -999 0.118468 0.745599 -1.279161
2008-10-31 08:04:38 51°16.594 2°52.819 -999 0.105294 0.657761 -1.244337
2008-10-31 08:05:38 51°16.77 2°52.697 -999 0.119806 0.754879 -1.244337
2008-10-31 08:06:38 51°16.941 2°52.572 -999 0.104677 0.655252 -1.279161
2008-10-31 08:07:38 51°17.116 2°52.459 -999 0.103339 0.647273 -1.244337
2008-10-31 08:08:38 51°17.29 2°52.332 -999 0.100972 0.631166 -1.279161
2008-10-31 08:09:38 51°17.457 2°52.182 -999 0.097782 0.609773 -1.279161
2008-10-31 08:10:38 51°17.617 2°52.018 -999 0.111675 0.700984 -1.279161
2008-10-31 08:11:38 51°17.78 2°51.862 -999 0.116204 0.731046 -1.279161
2008-10-31 08:12:38 51°17.941 2°51.695 -999 0.088725 0.551583 -1.279161
2008-10-31 08:13:38 51°18.103 2°51.528 -999 0.108073 0.67804 -1.279161
2008-10-31 08:14:38 51°18.266 2°51.359 -999 0.109103 0.684397 -1.279161
2008-10-31 08:15:38 51°18.43 2°51.187 -999 0.124746 0.787185 -1.244337
2008-10-31 08:16:38 51°18.593 2°51.013 -999 0.198648 1.283586 -1.279161
2008-10-31 08:17:38 51°18.756 2°50.841 -999 0.141934 0.90185 -1.244337
2008-10-31 08:18:38 51°18.919 2°50.667 -999 0.107662 0.675613 -1.279161
2008-10-31 08:19:38 51°19.082 2°50.493 -999 0.113013 0.710205 -1.279161
2008-10-31 08:20:38 51°19.247 2°50.326 -999 0.226646 1.476392 -1.279161
2008-10-31 08:21:38 51°19.413 2°50.163 -999 0.113837 0.716121 -1.279161
2008-10-31 08:22:38 51°19.579 2°49.994 -999 0.113425 0.71352 -1.244337
2008-10-31 08:23:38 51°19.746 2°49.827 -999 0.127731 0.80775 -1.279161
2008-10-31 08:24:38 51°19.916 2°49.666 -999 0.09562 0.597213 -1.279161
2008-10-31 08:25:38 51°20.08 2°49.483 -999 0.089239 0.555492 -1.244337
2008-10-31 08:26:38 51°20.244 2°49.296 -999 0.115586 0.727734 -1.279161
2008-10-31 08:27:38 51°20.407 2°49.107 -999 0.156859 1.00193 -1.244337
2008-10-31 08:28:38 51°20.573 2°48.917 -999 0.205956 1.334605 -1.244337
2008-10-31 08:29:38 51°20.738 2°48.728 -999 0.212853 1.381733 -1.244337
2008-10-31 08:30:38 51°20.902 2°48.539 -999 0.132363 0.838876 -1.279161
2008-10-31 08:31:38 51°21.07 2°48.356 -999 0.172401 1.10667 -1.279161
2008-10-31 08:32:38 51°21.237 2°48.173 -999 0.212338 1.37862 -1.279161
2008-10-31 08:33:38 51°21.405 2°47.99 -999 0.110646 0.695459 -1.279161
2008-10-31 08:34:38 51°21.572 2°47.806 -999 0.111264 0.699265 -1.279161
2008-10-31 08:35:38 51°21.742 2°47.633 -999 0.125364 0.792259 -1.279161
2008-10-31 08:36:38 51°21.915 2°47.48 -999 0.259484 1.702334 -1.279161
2008-10-31 08:37:38 51°22.091 2°47.345 -999 0.221602 1.441001 -1.244337
2008-10-31 08:38:38 51°22.267 2°47.218 -999 0.118262 0.745275 -1.244337
2008-10-31 08:39:38 51°22.439 2°47.088 -999 0.145228 0.924206 -1.244337
2008-10-31 08:40:38 51°22.612 2°46.959 -999 0.100869 0.631366 -1.244337
2008-10-31 08:41:38 51°22.784 2°46.827 -999 0.104265 0.653519 -1.279161
2008-10-31 08:42:38 51°22.956 2°46.694 -999 0.114351 0.71964 -1.244337
2008-10-31 08:43:38 51°23.131 2°46.564 -999 0.132671 0.840731 -1.279161
2008-10-31 08:44:38 51°23.305 2°46.431 -999 0.143478 0.912652 -1.244337
2008-10-31 08:45:38 51°23.477 2°46.297 -999 0.162314 1.038779 -1.244337
2008-10-31 08:46:38 51°23.65 2°46.167 -999 0.179297 1.153176 -1.279161
2008-10-31 08:47:38 51°23.823 2°46.032 -999 0.133392 0.845423 -1.244337
2008-10-31 08:48:38 51°23.996 2°45.903 -999 0.144096 0.91677 -1.279161
2008-10-31 08:49:38 51°24.166 2°45.928 -999 0.258866 1.698053 -1.279161
2008-10-31 08:50:38 51°24.308 2°46.062 -999 0.132054 0.836493 -1.279161
2008-10-31 08:51:38 51°24.435 2°46.232 -999 0.136377 0.86541 -1.244337
2008-10-31 08:52:38 51°24.564 2°46.401 -999 0.183414 1.18054 -1.244337
2008-10-31 08:53:38 51°24.687 2°46.578 -999 0.094179 0.587482 -1.279161
2008-10-31 08:54:38 51°24.8 2°46.772 -999 0.110029 0.691117 -1.244337
2008-10-31 08:55:38 51°24.904 2°46.98 -999 0.089651 0.558335 -1.279161
2008-10-31 08:56:38 51°25.01 2°47.188 -999 0.090269 0.562187 -1.244337
2008-10-31 08:57:38 51°25.115 2°47.396 -999 0.081932 0.50826 -1.244337
2008-10-31 08:58:38 51°25.212 2°47.615 -999 0.08183 0.507469 -1.244337
2008-10-31 08:59:38 51°25.301 2°47.844 -999 0.089137 0.554814 -1.244337
2008-10-31 09:00:38 51°25.386 2°48.077 -999 0.081521 0.505731 -1.279161
2008-10-31 09:01:38 51°25.477 2°48.308 -999 0.088828 0.552905 -1.244337
2008-10-31 09:02:38 51°25.563 2°48.545 -999 0.12135 0.765632 -1.279161
2008-10-31 09:03:38 51°25.649 2°48.781 -999 0.107353 0.673379 -1.244337
2008-10-31 09:04:38 51°25.743 2°49.011 -999 0.08255 0.512137 -1.279161
2008-10-31 09:05:38 51°25.839 2°49.236 -999 0.093253 0.581342 -1.279161
2008-10-31 09:06:38 51°25.936 2°49.461 -999 0.086769 0.539452 -1.279161
2008-10-31 09:07:38 51°26.034 2°49.688 -999 0.088004 0.547252 -1.244337
2008-10-31 09:08:38 51°26.133 2°49.914 -999 0.086461 0.537466 -1.279161
2008-10-31 09:09:38 51°26.23 2°50.147 -999 0.09243 0.576117 -1.279161
2008-10-31 09:10:38 51°26.326 2°50.381 -999 0.094282 0.588163 -1.279161
2008-10-31 09:11:38 51°26.423 2°50.613 -999 0.087902 0.546654 -1.244337
2008-10-31 09:12:38 51°26.521 2°50.843 -999 0.083579 0.51853 -1.244337
2008-10-31 09:13:38 51°26.621 2°51.066 -999 0.098296 0.614003 -1.244337
2008-10-31 09:14:38 51°26.71 2°51.304 -999 0.100252 0.626706 -1.244337
2008-10-31 09:15:38 51°26.801 2°51.538 -999 0.068451 0.421431 -1.244337
2008-10-31 09:16:38 51°26.89 2°51.775 -999 0.081315 0.503796 -1.279161
2008-10-31 09:17:38 51°26.979 2°52.013 -999 0.074317 0.459041 -1.279161
2008-10-31 09:18:38 51°27.065 2°52.253 -999 0.085329 0.529693 -1.244337
2008-10-31 09:19:38 51°27.15 2°52.494 -999 0.079051 0.48959 -1.244337
2008-10-31 09:20:38 51°27.239 2°52.731 -999 0.090166 0.561122 -1.279161
2008-10-31 09:21:38 51°27.323 2°52.974 -999 0.094488 0.589206 -1.244337
2008-10-31 09:22:38 51°27.41 2°53.213 -999 0.088004 0.54748 -1.244337
2008-10-31 09:23:38 51°27.5 2°53.45 -999 0.084814 0.526634 -1.279161
2008-10-31 09:24:38 51°27.584 2°53.693 -999 0.087078 0.541292 -1.244337
2008-10-31 09:25:38 51°27.67 2°53.933 -999 0.140494 0.891863 -1.279161
2008-10-31 09:26:38 51°27.757 2°54.173 -999 0.093665 0.583712 -1.279161
2008-10-31 09:27:38 51°27.846 2°54.41 -999 0.082035 0.508426 -1.244337
2008-10-31 09:28:38 51°27.933 2°54.647 -999 0.092018 0.573133 -1.279161
2008-10-31 09:29:38 51°28.015 2°54.888 -999 0.0808 0.50044 -1.279161
2008-10-31 09:30:38 51°28.102 2°55.124 -999 0.08327 0.516624 -1.279161
2008-10-31 09:31:38 51°28.188 2°55.359 -999 0.076581 0.473168 -1.279161
2008-10-31 09:32:38 51°28.273 2°55.599 -999 0.092121 0.573574 -1.244337
2008-10-31 09:33:38 51°28.36 2°55.834 -999 0.083476 0.517812 -1.244337
2008-10-31 09:34:38 51°28.446 2°56.072 -999 0.090063 0.560163 -1.244337
2008-10-31 09:35:38 51°28.534 2°56.307 -999 0.073391 0.452906 -1.279161
2008-10-31 09:36:38 51°28.622 2°56.54 -999 0.099325 0.620215 -1.279161
2008-10-31 09:37:38 51°28.71 2°56.775 -999 0.092944 0.579023 -1.279161
2008-10-31 09:38:38 51°28.797 2°57.013 -999 0.093974 0.58568 -1.279161
2008-10-31 09:39:38 51°28.884 2°57.252 -999 0.082035 0.508268 -1.244337
2008-10-31 09:40:38 51°28.97 2°57.491 -999 0.07442 0.459539 -1.244337
2008-10-31 09:41:38 51°29.062 2°57.722 -999 0.076478 0.472723 -1.244337
2008-10-31 09:42:38 51°29.149 2°57.959 -999 0.081315 0.503681 -1.279161
2008-10-31 09:43:38 51°29.24 2°58.189 -999 0.078227 0.48367 -1.244337
2008-10-31 09:44:38 51°29.328 2°58.424 -999 0.074214 0.458077 -1.279161
2008-10-31 09:45:38 51°29.42 2°58.655 -999 0.103545 0.647886 -1.279161
2008-10-31 09:46:38 51°29.508 2°58.889 -999 0.083579 0.518293 -1.244337
2008-10-31 09:47:38 51°29.595 2°59.124 -999 0.090269 0.561157 -1.279161
2008-10-31 09:48:38 51°29.682 2°59.362 -999 0.083167 0.515574 -1.279161
2008-10-31 09:49:38 51°29.768 2°59.6 -999 0.099222 0.619649 -1.244337
2008-10-31 09:50:38 51°29.86 2°59.834 -999 0.090166 0.560654 -1.279161
2008-10-31 09:51:38 51°29.947 3°0.072 -999 0.110852 0.695499 -1.279161
2008-10-31 09:52:38 51°30.032 3°0.31 -999 0.100149 0.625225 -1.279161
2008-10-31 09:53:38 51°30.124 3°0.547 -999 0.0808 0.500233 -1.244337
2008-10-31 09:54:38 51°30.215 3°0.789 -999 0.083064 0.514793 -1.244337
2008-10-31 09:55:38 51°30.307 3°1.032 -999 0.06948 0.427781 -1.279161
2008-10-31 09:56:38 51°30.401 3°1.27 -999 0.090372 0.562022 -1.244337
2008-10-31 09:57:38 51°30.494 3°1.512 -999 0.078639 0.486254 -1.244337
2008-10-31 09:58:38 51°30.587 3°1.753 -999 0.074626 0.460505 -1.244337
2008-10-31 09:59:38 51°30.681 3°1.995 -999 0.076066 0.469506 -1.244337
2008-10-31 10:00:38 51°30.773 3°2.24 -999 0.102104 0.638283 -1.244337
2008-10-31 10:01:38 51°30.866 3°2.482 -999 0.096032 0.59833 -1.279161
2008-10-31 10:02:38 51°30.958 3°2.725 -999 0.083991 0.520905 -1.279161
2008-10-31 10:03:38 51°31.052 3°2.964 -999 0.098914 0.617033 -1.279161
2008-10-31 10:04:38 51°31.146 3°3.203 -999 0.087284 0.541586 -1.244337
2008-10-31 10:05:38 51°31.242 3°3.444 -999 0.07936 0.490873 -1.279161
2008-10-31 10:06:38 51°31.335 3°3.693 -999 0.079051 0.488879 -1.244337
2008-10-31 10:07:38 51°31.433 3°3.934 -999 0.075552 0.466315 -1.279161
2008-10-31 10:08:38 51°31.533 3°4.173 -999 0.07761 0.479446 -1.244337
2008-10-31 10:09:38 51°31.628 3°4.417 -999 0.089754 0.557444 -1.279161
2008-10-31 10:10:38 51°31.722 3°4.663 -999 0.074831 0.461326 -1.244337
2008-10-31 10:11:38 51°31.864 3°4.828 -999 0.089754 0.55756 -1.279161
2008-10-31 10:12:38 51°32.045 3°4.857 -999 0.080492 0.497812 -1.244337
2008-10-31 10:13:38 51°32.22 3°4.725 -999 0.186605 1.198892 -1.244337
2008-10-31 10:14:38 51°32.372 3°4.516 -999 0.332474 2.205835 -1.244337
2008-10-31 10:15:38 51°32.518 3°4.289 -999 0.162108 1.034412 -1.244337
2008-10-31 10:16:38 51°32.671 3°4.073 -999 0.133186 0.842006 -1.244337
2008-10-31 10:17:38 51°32.797 3°3.819 -999 0.11466 0.719604 -1.244337
2008-10-31 10:18:38 51°32.862 3°3.5 -999 0.099017 0.617612 -1.244337
2008-10-31 10:19:38 51°32.835 3°3.16 -999 0.105397 0.659243 -1.244337
2008-10-31 10:20:38 51°32.724 3°2.854 -999 0.12207 0.768677 -1.244337
2008-10-31 10:21:38 51°32.611 3°2.544 -999 0.109205 0.684213 -1.244337
2008-10-31 10:22:38 51°32.507 3°2.228 -999 0.0949 0.590907 -1.244337
2008-10-31 10:23:38 51°32.406 3°1.904 -999 0.100149 0.625017 -1.244337
2008-10-31 10:24:38 51°32.305 3°1.584 -999 0.080389 0.496995 -1.244337
2008-10-31 10:25:38 51°32.204 3°1.261 -999 0.105809 0.661696 -1.244337
2008-10-31 10:26:38 51°32.107 3°0.936 -999 0.097267 0.606037 -1.244337
2008-10-31 10:27:38 51°32.013 3°0.606 -999 0.092018 0.572238 -1.209513
2008-10-31 10:28:38 51°31.914 3°0.278 -999 0.229631 1.49218 -1.244337
2008-10-31 10:29:38 51°31.819 2°59.948 -999 0.129481 0.8169 -1.209513
2008-10-31 10:30:38 51°31.725 2°59.613 -999 0.108485 0.67899 -1.244337
2008-10-31 10:31:38 51°31.628 2°59.277 -999 0.134318 0.849022 -1.244337
2008-10-31 10:32:38 51°31.53 2°58.94 -999 0.089034 0.552626 -1.209513
2008-10-31 10:33:38 51°31.431 2°58.601 -999 0.127216 0.801972 -1.244337
2008-10-31 10:34:38 51°31.333 2°58.262 -999 0.08327 0.515455 -1.244337
2008-10-31 10:35:38 51°31.235 2°57.92 -999 0.092944 0.57765 -1.244337
2008-10-31 10:36:38 51°31.14 2°57.574 -999 0.094591 0.588316 -1.244337
2008-10-31 10:37:38 51°31.044 2°57.232 -999 0.109308 0.684172 -1.244337
2008-10-31 10:38:38 51°30.946 2°56.892 -999 0.101281 0.631847 -1.209513
2008-10-31 10:39:38 51°30.85 2°56.553 -999 0.087593 0.542925 -1.244337
2008-10-31 10:40:38 51°30.756 2°56.213 -999 0.087593 0.54288 -1.244337
2008-10-31 10:41:38 51°30.66 2°55.877 -999 0.084505 0.522877 -1.244337
2008-10-31 10:42:38 51°30.565 2°55.552 -999 0.113322 0.710403 -1.244337
2008-10-31 10:43:38 51°30.463 2°55.237 -999 0.07514 0.463034 -1.244337
2008-10-31 10:44:38 51°30.356 2°54.921 -999 0.084197 0.521182 -1.244337
2008-10-31 10:45:38 51°30.253 2°54.606 -999 0.13051 0.823113 -1.244337
2008-10-31 10:46:38 51°30.145 2°54.298 -999 0.092018 0.57137 -1.209513
2008-10-31 10:47:38 51°30.038 2°53.989 -999 0.105192 0.656707 -1.209513
2008-10-31 10:48:38 51°29.927 2°53.679 -999 0.129789 0.818562 -1.174688
2008-10-31 10:49:38 51°29.817 2°53.369 -999 0.114146 0.71514 -1.209513
2008-10-31 10:50:38 51°29.71 2°53.058 -999 0.116924 0.733665 -1.244337
2008-10-31 10:51:38 51°29.603 2°52.744 -999 0.113837 0.712941 -1.244337
2008-10-31 10:52:39 51°29.498 2°52.425 -999 0.100252 0.62484 -1.209513
2008-10-31 10:53:38 51°29.396 2°52.118 -999 1.038966 7.456496 -1.209513
2008-10-31 10:54:38 51°29.288 2°51.808 -999 0.110029 0.688838 -1.209513
2008-10-31 10:55:38 51°29.178 2°51.499 -999 0.088519 0.548674 -1.209513
2008-10-31 10:56:38 51°29.07 2°51.186 -999 0.097267 0.604966 -1.209513
2008-10-31 10:57:38 51°28.963 2°50.874 -999 0.170239 1.087399 -1.209513
2008-10-31 10:58:38 51°28.858 2°50.56 -999 0.109308 0.683815 -1.209513
2008-10-31 10:59:38 51°28.754 2°50.246 -999 0.114043 0.714839 -1.209513
2008-10-31 11:00:38 51°28.642 2°49.932 -999 0.182488 1.170275 -1.209513
2008-10-31 11:01:38 51°28.536 2°49.621 -999 1.903527 14.356639 -1.453281
2008-10-31 11:02:38 51°28.432 2°49.307 -999 0.249498 1.626913 -1.418457
2008-10-31 11:03:38 51°28.326 2°48.993 -999 1.517079 11.218378 -1.418457
2008-10-31 11:04:38 51°28.22 2°48.677 -999 0.124643 0.784222 -1.418457
2008-10-31 11:05:38 51°28.11 2°48.365 -999 0.097781 0.608379 -1.418457
2008-10-31 11:06:38 51°28.003 2°48.06 -999 0.121659 0.76408 -1.418457
2008-10-31 11:07:38 51°27.897 2°47.749 -999 0.081212 0.501601 -1.418457
2008-10-31 11:08:38 51°27.79 2°47.438 -999 0.116616 0.731228 -1.418457
2008-10-31 11:09:38 51°27.684 2°47.127 -999 0.455311 3.078117 -1.453281
2008-10-31 11:10:38 51°27.578 2°46.819 -999 0.131436 0.828554 -1.418457
2008-10-31 11:11:38 51°27.472 2°46.505 -999 0.164887 1.050878 -1.418457
2008-10-31 11:12:38 51°27.366 2°46.188 -999 0.094591 0.587766 -1.418457
2008-10-31 11:13:38 51°27.26 2°45.873 -999 0.083476 0.51602 -1.418457
2008-10-31 11:14:38 51°27.158 2°45.552 -999 0.180944 1.159111 -1.418457
2008-10-31 11:15:38 51°27.052 2°45.236 -999 0.117851 0.739216 -1.418457
2008-10-31 11:16:38 51°26.947 2°44.924 -999 0.316208 2.088974 -1.418457
2008-10-31 11:17:38 51°26.845 2°44.613 -999 0.135244 0.853583 -1.418457
2008-10-31 11:18:38 51°26.741 2°44.302 -999 0.178576 1.142812 -1.453281
2008-10-31 11:19:38 51°26.635 2°43.995 -999 0.907963 6.441739 -1.453281
2008-10-31 11:20:38 51°26.532 2°43.687 -999 0.103957 0.6483 -1.453281
2008-10-31 11:21:38 51°26.481 2°43.375 -999 1.006702 7.195168 -1.453281
2008-10-31 11:22:38 51°26.623 2°43.169 -999 0.123202 0.773869 -1.453281
2008-10-31 11:23:38 51°26.778 2°42.97 -999 0.16324 1.039707 -1.453281
2008-10-31 11:24:38 51°26.935 2°42.772 -999 0.149551 0.948149 -1.453281
2008-10-31 11:25:38 51°27.098 2°42.596 -999 0.189487 1.216208 -1.453281
2008-10-31 11:26:38 51°27.269 2°42.441 -999 0.163034 1.038374 -1.453281
2008-10-31 11:27:38 51°27.443 2°42.297 -999 0.211412 1.364959 -1.453281
2008-10-31 11:28:38 51°27.608 2°42.395 -999 0.350491 2.328648 -1.453281
2008-10-31 11:29:38 51°27.7 2°42.67 -999 0.139876 0.883989 -1.453281
2008-10-31 11:30:38 51°27.794 2°42.953 -999 0.097679 0.607421 -1.453281
2008-10-31 11:31:38 51°27.901 2°43.225 -999 0.119703 0.750961 -1.453281
2008-10-31 11:32:38 51°28.007 2°43.497 -999 0.105397 0.657501 -1.453281
2008-10-31 11:33:38 51°28.109 2°43.775 -999 0.102104 0.635789 -1.453281
2008-10-31 11:34:38 51°28.208 2°44.057 -999 0.09068 0.561881 -1.453281
2008-10-31 11:35:38 51°28.308 2°44.339 -999 0.101281 0.630403 -1.453281
2008-10-31 11:36:38 51°28.406 2°44.623 -999 0.1055 0.657993 -1.453281
2008-10-31 11:37:38 51°28.504 2°44.907 -999 0.096958 0.602352 -1.453281
2008-10-31 11:38:38 51°28.604 2°45.189 -999 0.091606 0.567824 -1.453281
2008-10-31 11:39:38 51°28.701 2°45.472 -999 0.117851 0.738339 -1.453281
2008-10-31 11:40:38 51°28.797 2°45.757 -999 0.108176 0.675002 -1.453281
2008-10-31 11:41:38 51°28.896 2°46.039 -999 0.110749 0.69189 -1.453281
2008-10-31 11:42:38 51°28.995 2°46.322 -999 0.097473 0.605471 -1.453281
2008-10-31 11:43:38 51°29.091 2°46.603 -999 0.129584 0.815363 -1.453281
2008-10-31 11:44:38 51°29.186 2°46.886 -999 0.086461 0.534207 -1.453281
2008-10-31 11:45:38 51°29.282 2°47.171 -999 0.090783 0.562231 -1.453281
2008-10-31 11:46:38 51°29.386 2°47.448 -999 0.121659 0.763221 -1.453281
2008-10-31 11:47:38 51°29.487 2°47.728 -999 0.101795 0.633205 -1.453281
2008-10-31 11:48:38 51°29.589 2°48.009 -999 0.088622 0.54819 -1.453281
2008-10-31 11:49:38 51°29.692 2°48.289 -999 0.084197 0.519716 -1.453281
2008-10-31 11:50:38 51°29.788 2°48.578 -999 0.088931 0.550201 -1.453281
2008-10-31 11:51:38 51°29.884 2°48.868 -999 0.093768 0.581399 -1.453281
2008-10-31 11:52:38 51°29.982 2°49.156 -999 0.095517 0.592424 -1.453281
2008-10-31 11:53:38 51°30.082 2°49.442 -999 0.097164 0.603109 -1.453281
2008-10-31 11:54:38 51°30.186 2°49.724 -999 0.081006 0.499153 -1.453281
2008-10-31 11:55:38 51°30.287 2°50.011 -999 0.104471 0.650539 -1.453281
2008-10-31 11:56:38 51°30.383 2°50.302 -999 0.111572 0.69664 -1.453281
2008-10-31 11:57:38 51°30.488 2°50.585 -999 0.080492 0.495725 -1.453281
2008-10-31 11:58:39 51°30.588 2°50.881 -999 0.109102 0.680471 -1.453281
2008-10-31 11:59:38 51°30.69 2°51.16 -999 0.118056 0.738841 -1.453281
2008-10-31 12:00:38 51°30.817 2°51.415 -999 0.081521 0.502107 -1.453281
2008-10-31 12:01:38 51°30.96 2°51.645 -999 0.106324 0.662169 -1.453281
2008-10-31 12:02:38 51°31.107 2°51.874 -999 0.131642 0.827442 -1.453281
2008-10-31 12:03:38 51°31.258 2°52.092 -999 0.080286 0.494571 -1.453281
2008-10-31 12:04:38 51°31.412 2°52.303 -999 0.098605 0.612549 -1.453281
2008-10-31 12:05:39 51°31.573 2°52.509 -999 0.099428 0.61723 -1.453281
2008-10-31 12:06:38 51°31.729 2°52.714 -999 0.131848 0.829193 -1.453281
2008-10-31 12:07:38 51°31.891 2°52.916 -999 0.109308 0.681685 -1.453281
2008-10-31 12:08:38 51°32.055 2°53.112 -999 0.106838 0.665046 -1.453281
2008-10-31 12:09:38 51°32.218 2°53.312 -999 0.089754 0.554494 -1.453281
2008-10-31 12:10:38 51°32.387 2°53.5 -999 0.082138 0.505989 -1.453281
2008-10-31 12:11:38 51°32.554 2°53.694 -999 0.109823 0.68468 -1.453281
2008-10-31 12:12:39 51°32.724 2°53.894 -999 0.096958 0.601167 -1.453281
2008-10-31 12:13:38 51°32.887 2°54.09 -999 0.147389 0.931526 -1.453281
2008-10-31 12:14:38 51°33.051 2°54.292 -999 0.103854 0.645429 -1.453281
2008-10-31 12:15:38 51°33.216 2°54.497 -999 0.106941 0.665604 -1.453281
2008-10-31 12:16:38 51°33.367 2°54.728 -999 0.160049 1.014836 -1.453281
2008-10-31 12:17:38 51°33.494 2°54.999 -999 0.091401 0.565219 -1.453281
2008-10-31 12:18:38 51°33.623 2°55.269 -999 0.103133 0.64133 -1.453281
2008-10-31 12:19:38 51°33.743 2°55.552 -999 0.087799 0.542049 -1.453281
2008-10-31 12:20:38 51°33.838 2°55.86 -999 0.102413 0.636209 -1.453281
2008-10-31 12:21:39 51°33.918 2°56.187 -999 0.085843 0.529428 -1.453281
2008-10-31 12:22:38 51°33.997 2°56.501 -999 0.093974 0.58156 -1.453281
2008-10-31 12:23:39 51°34.081 2°56.823 -999 0.101075 0.627464 -1.453281
2008-10-31 12:24:38 51°34.171 2°57.128 -999 0.088519 0.546645 -1.453281
2008-10-31 12:25:38 51°34.262 2°57.438 -999 0.069583 0.425579 -1.453281
2008-10-31 12:26:38 51°34.352 2°57.75 -999 0.094282 0.58349 -1.453281
2008-10-31 12:27:38 51°34.437 2°58.07 -999 0.115175 0.718808 -1.453281
2008-10-31 12:28:38 51°34.521 2°58.387 -999 0.083785 0.51572 -1.453281
2008-10-31 12:29:38 51°34.606 2°58.701 -999 0.079874 0.490913 -1.453281
2008-10-31 12:30:39 51°34.696 2°59.017 -999 0.096752 0.599514 -1.453281
2008-10-31 12:31:38 51°34.778 2°59.331 -999 0.07833 0.481218 -1.453281
2008-10-31 12:32:39 51°34.863 2°59.656 -999 0.091195 0.563602 -1.453281
2008-10-31 12:33:38 51°34.962 2°59.951 -999 0.072258 0.442326 -1.453281
2008-10-31 12:34:38 51°35.142 3°0.094 -999 0.077816 0.47765 -1.453281
2008-10-31 12:35:38 51°35.312 2°59.965 -999 0.077713 0.476631 -1.453281
2008-10-31 12:36:38 51°35.383 2°59.676 -999 0.149448 0.943659 -1.453281
2008-10-31 12:37:38 51°35.441 2°59.376 -999 0.095723 0.592001 -1.453281
2008-10-31 12:38:38 51°35.485 2°59.078 -999 0.164887 1.046279 -1.453281
2008-10-31 12:39:38 51°35.463 2°58.776 -999 0.087901 0.541972 -1.453281
2008-10-31 12:40:38 51°35.402 2°58.486 -999 0.082138 0.504999 -1.453281
2008-10-31 12:41:38 51°35.338 2°58.198 -999 0.069891 0.427107 -1.453281
2008-10-31 12:42:38 51°35.263 2°57.917 -999 0.102413 0.635603 -1.453281
2008-10-31 12:43:38 51°35.176 2°57.642 -999 0.076478 0.4687 -1.453281
2008-10-31 12:44:38 51°35.092 2°57.366 -999 0.086152 0.530588 -1.453281
2008-10-31 12:45:38 51°35.005 2°57.093 -999 0.084711 0.521479 -1.453281
2008-10-31 12:46:38 51°34.916 2°56.82 -999 0.15058 0.951019 -1.453281
2008-10-31 12:47:38 51°34.825 2°56.552 -999 0.110337 0.686549 -1.453281
2008-10-31 12:48:38 51°34.73 2°56.285 -999 0.113013 0.704109 -1.453281
2008-10-31 12:49:38 51°34.641 2°56.013 -999 0.113837 0.709468 -1.453281
2008-10-31 12:50:38 51°34.551 2°55.744 -999 0.104986 0.651733 -1.453281
2008-10-31 12:51:38 51°34.458 2°55.479 -999 0.099222 0.614498 -1.453281
2008-10-31 12:52:38 51°34.36 2°55.219 -999 0.087799 0.540999 -1.453281
2008-10-31 12:53:38 51°34.262 2°54.959 -999 0.673556 4.649658 -1.453281
2008-10-31 12:54:38 51°34.167 2°54.698 -999 0.084711 0.521082 -1.453281
2008-10-31 12:55:38 51°34.07 2°54.442 -999 0.08502 0.52309 -1.453281
2008-10-31 12:56:38 51°33.975 2°54.187 -999 0.114145 0.711081 -1.453281
2008-10-31 12:57:38 51°33.881 2°53.929 -999 0.120321 0.751427 -1.453281
2008-10-31 12:58:38 51°33.787 2°53.672 -999 0.109411 0.680307 -1.453281
2008-10-31 12:59:38 51°33.696 2°53.412 -999 0.121556 0.759431 -1.453281
2008-10-31 13:00:38 51°33.606 2°53.154 -999 0.088313 0.543997 -1.453281
2008-10-31 13:01:38 51°33.512 2°52.895 -999 0.084814 0.521515 -1.453281
2008-10-31 13:02:38 51°33.42 2°52.637 -999 0.081521 0.5006 -1.453281
2008-10-31 13:03:38 51°33.327 2°52.381 -999 0.215838 1.387406 -1.453281
2008-10-31 13:04:38 51°33.237 2°52.123 -999 0.104162 0.646093 -1.453281
2008-10-31 13:05:38 51°33.149 2°51.862 -999 0.174562 1.109204 -1.453281
2008-10-31 13:06:38 51°33.058 2°51.601 -999 0.096958 0.598949 -1.453281
2008-10-31 13:07:38 51°32.97 2°51.338 -999 0.184752 1.177009 -1.453281
2008-10-31 13:08:38 51°32.878 2°51.078 -999 0.223043 1.43463 -1.453281
2008-10-31 13:09:38 51°32.787 2°50.821 -999 0.088622 0.545561 -1.453281
2008-10-31 13:10:38 51°32.696 2°50.565 -999 0.215426 1.384328 -1.453281
2008-10-31 13:11:38 51°32.607 2°50.305 -999 0.114145 0.710596 -1.453281
2008-10-31 13:12:38 51°32.518 2°50.042 -999 0.116307 0.724435 -1.453281
2008-10-31 13:13:38 51°32.427 2°49.785 -999 0.286043 1.866227 -1.453281
2008-10-31 13:14:38 51°32.34 2°49.528 -999 0.118365 0.73752 -1.453281
2008-10-31 13:15:38 51°32.253 2°49.269 -999 0.332062 2.187572 -1.453281
2008-10-31 13:16:38 51°32.163 2°49.014 -999 1.405967 10.260296 -1.453281
2008-10-31 13:17:38 51°32.077 2°48.757 -999 0.10478 0.649272 -1.453281
2008-10-31 13:18:38 51°31.993 2°48.501 -999 0.109617 0.680954 -1.453281
2008-10-31 13:19:38 51°31.906 2°48.246 -999 0.099737 0.616828 -1.453281
2008-10-31 13:20:38 51°31.818 2°47.995 -999 0.086152 0.529476 -1.453281
2008-10-31 13:21:38 51°31.732 2°47.743 -999 0.101589 0.62887 -1.453281
2008-10-31 13:22:38 51°31.647 2°47.491 -999 0.145845 0.917971 -1.453281
2008-10-31 13:23:38 51°31.563 2°47.24 -999 0.090166 0.555319 -1.453281
2008-10-31 13:24:38 51°31.476 2°46.989 -999 0.375716 2.489114 -1.453281
2008-10-31 13:25:38 51°31.395 2°46.735 -999 0.089754 0.552373 -1.453281
2008-10-31 13:26:38 51°31.311 2°46.484 -999 0.103854 0.643139 -1.453281
2008-10-31 13:27:38 51°31.229 2°46.23 -999 0.087593 0.538316 -1.453281
2008-10-31 13:28:38 51°31.146 2°45.978 -999 0.138126 0.865991 -1.453281
2008-10-31 13:29:38 51°31.064 2°45.721 -999 0.083476 0.512131 -1.453281
2008-10-31 13:30:38 51°30.979 2°45.467 -999 0.113116 0.703293 -1.453281
2008-10-31 13:31:38 51°30.896 2°45.21 -999 0.159226 1.005878 -1.453281
2008-10-31 13:32:38 51°30.811 2°44.951 -999 0.086358 0.53052 -1.453281
2008-10-31 13:33:38 51°30.725 2°44.696 -999 0.088725 0.545693 -1.453281
2008-10-31 13:34:38 51°30.641 2°44.44 -999 0.250013 1.616925 -1.453281
2008-10-31 13:35:38 51°30.561 2°44.183 -999 0.139773 0.876284 -1.453281
2008-10-31 13:36:38 51°30.482 2°43.928 -999 0.084608 0.519025 -1.453281
2008-10-31 13:37:38 51°30.399 2°43.673 -999 0.117748 0.73262 -1.453281
2008-10-31 13:38:38 51°30.317 2°43.418 -999 0.109514 0.679514 -1.453281
2008-10-31 13:39:38 51°30.235 2°43.165 -999 0.077404 0.473246 -1.453281
2008-10-31 13:40:38 51°30.155 2°42.91 -999 0.082653 0.506964 -1.453281
2008-10-31 13:41:38 51°30.076 2°42.652 -999 0.08996 0.55343 -1.453281
2008-10-31 13:42:38 51°29.993 2°42.396 -999 0.500518 3.376735 -1.453281
2008-10-31 13:43:38 51°29.909 2°42.142 -999 0.124849 0.778673 -1.453281
2008-10-31 13:44:38 51°29.822 2°41.893 -999 0.794301 5.526459 -1.453281
2008-10-31 13:45:38 51°29.723 2°41.657 -999 0.103133 0.637382 -1.453281
2008-10-31 13:46:38 51°29.627 2°41.417 -999 0.113734 0.706137 -1.453281
2008-10-31 13:47:38 51°29.527 2°41.178 -999 0.213573 1.368104 -1.453281
2008-10-31 13:48:38 51°29.423 2°40.945 -999 0.081212 0.49722 -1.453281
2008-10-31 13:49:38 51°29.313 2°40.716 -999 0.07761 0.474427 -1.418457
2008-10-31 13:50:38 51°29.199 2°40.493 -999 0.085226 0.522751 -1.453281
2008-10-31 13:51:38 51°29.054 2°40.316 -999 0.076581 0.467905 -1.418457
2008-10-31 13:52:38 51°28.888 2°40.196 -999 0.393014 2.608793 -1.418457
2008-10-31 13:53:38 51°28.72 2°40.078 -999 0.364081 2.403788 -1.488105
2008-10-31 13:54:38 51°28.546 2°39.978 -999 0.110029 0.682074 -1.488105
2008-10-31 13:55:38 51°28.374 2°39.875 -999 0.099016 0.611063 -1.488105
2008-10-31 13:56:38 51°28.201 2°39.777 -999 0.072258 0.440429 -1.488105
2008-10-31 13:57:38 51°28.025 2°39.693 -999 0.075449 0.460416 -1.488105
2008-10-31 13:58:38 51°27.84 2°39.715 -999 0.071538 0.435725 -1.453281
2008-10-31 13:59:38 51°27.66 2°39.828 -999 0.073185 0.446087 -1.488105
2008-10-31 14:00:38 51°27.487 2°39.951 -999 0.074728 0.455845 -1.488105
2008-10-31 14:01:38 51°27.313 2°40.071 -999 0.07514 0.45832 -1.488105
2008-10-31 14:02:38 51°27.137 2°40.186 -999 0.089033 0.546782 -1.488105
2008-10-31 14:03:38 51°26.962 2°40.301 -999 0.452427 3.027898 -1.488105
2008-10-31 14:04:38 51°26.79 2°40.434 -999 0.086461 0.530111 -1.488105
2008-10-31 14:05:38 51°26.619 2°40.575 -999 0.088519 0.543415 -1.488105
2008-10-31 14:06:38 51°26.451 2°40.722 -999 0.060218 0.364246 -1.488105
2008-10-31 14:07:38 51°26.283 2°40.87 -999 0.076375 0.46599 -1.488105
2008-10-31 14:08:38 51°26.116 2°41.02 -999 0.077198 0.471245 -1.488105
2008-10-31 14:09:38 51°25.95 2°41.168 -999 0.067833 0.412029 -1.488105
2008-10-31 14:10:38 51°25.781 2°41.304 -999 0.066804 0.405374 -1.453281
2008-10-31 14:11:38 51°25.611 2°41.442 -999 0.075552 0.460607 -1.488105
2008-10-31 14:12:38 51°25.441 2°41.583 -999 0.091092 0.559602 -1.488105
2008-10-31 14:13:38 51°25.272 2°41.719 -999 0.086563 0.530474 -1.488105
2008-10-31 14:14:38 51°25.103 2°41.857 -999 0.074728 0.455482 -1.488105
2008-10-31 14:15:38 51°24.938 2°42.001 -999 0.138744 0.867606 -1.488105
2008-10-31 14:16:38 51°24.77 2°42.143 -999 0.117233 0.727563 -1.488105
2008-10-31 14:17:38 51°24.605 2°42.287 -999 0.067524 0.409729 -1.453281
2008-10-31 14:18:38 51°24.441 2°42.402 -999 0.081109 0.495713 -1.488105
2008-10-31 14:19:38 51°24.264 2°42.463 -999 0.08327 0.509419 -1.488105
2008-10-31 14:20:38 51°24.087 2°42.492 -999 0.121144 0.752736 -1.488105
2008-10-31 14:21:38 51°23.908 2°42.522 -999 0.097061 0.597287 -1.488105
2008-10-31 14:22:38 51°23.728 2°42.552 -999 0.084917 0.5196 -1.453281
2008-10-31 14:23:38 51°23.551 2°42.586 -999 0.083888 0.513105 -1.488105
2008-10-31 14:24:38 51°23.376 2°42.618 -999 0.082447 0.503926 -1.488105
2008-10-31 14:25:38 51°23.199 2°42.647 -999 0.086358 0.528783 -1.488105
2008-10-31 14:26:38 51°23.024 2°42.682 -999 0.089548 0.549126 -1.488105
2008-10-31 14:27:38 51°22.847 2°42.714 -999 0.069377 0.421193 -1.488105
2008-10-31 14:28:38 51°22.67 2°42.748 -999 0.089136 0.546387 -1.488105
2008-10-31 14:29:38 51°22.493 2°42.777 -999 0.090886 0.557577 -1.453281
2008-10-31 14:30:38 51°22.313 2°42.805 -999 0.07092 0.430597 -1.453281
2008-10-31 14:31:38 51°22.134 2°42.854 -999 0.069994 0.425045 -1.488105
2008-10-31 14:32:38 51°21.974 2°43.014 -999 0.073699 0.448363 -1.488105
2008-10-31 14:33:38 51°21.821 2°43.201 -999 0.073905 0.449643 -1.488105
2008-10-31 14:34:38 51°21.669 2°43.386 -999 0.18681 1.184991 -1.453281
2008-10-31 14:35:38 51°21.515 2°43.569 -999 0.068451 0.414963 -1.488105
2008-10-31 14:36:38 51°21.36 2°43.75 -999 0.076787 0.467701 -1.488105
2008-10-31 14:37:38 51°21.206 2°43.932 -999 0.070612 0.428497 -1.488105
2008-10-31 14:38:38 51°21.054 2°44.122 -999 0.062379 0.377039 -1.453281
2008-10-31 14:39:38 51°20.902 2°44.308 -999 0.082138 0.501555 -1.488105
2008-10-31 14:40:38 51°20.75 2°44.495 -999 0.09881 0.607877 -1.488105
2008-10-31 14:41:38 51°20.614 2°44.669 -999 0.075654 0.46032 -1.488105
2008-10-31 14:42:38 51°20.483 2°44.835 -999 0.109411 0.675949 -1.488105
2008-10-31 14:43:38 51°20.349 2°44.996 -999 0.071641 0.434983 -1.453281
2008-10-31 14:44:38 51°20.216 2°45.168 -999 0.076478 0.465474 -1.488105
2008-10-31 14:45:38 51°20.082 2°45.339 -999 0.056719 0.341483 -1.488105
2008-10-31 14:46:38 51°19.954 2°45.519 -999 0.060629 0.366027 -1.488105
2008-10-31 14:47:38 51°19.827 2°45.7 -999 0.068965 0.417958 -1.488105
2008-10-31 14:48:38 51°19.694 2°45.875 -999 0.074625 0.453592 -1.488105
2008-10-31 14:49:38 51°19.558 2°46.045 -999 0.068965 0.417958 -1.453281
2008-10-31 14:50:38 51°19.422 2°46.215 -999 0.068348 0.414081 -1.488105
2008-10-31 14:51:38 51°19.286 2°46.382 -999 0.082858 0.505623 -1.488105
2008-10-31 14:52:39 51°19.148 2°46.55 -999 0.069583 0.421769 -1.488105
2008-10-31 14:53:39 51°19.013 2°46.716 -999 0.071229 0.432084 -1.488105
2008-10-31 14:54:39 51°18.879 2°46.884 -999 0.061247 0.369509 -1.488105
2008-10-31 14:55:38 51°18.75 2°47.051 -999 0.068965 0.417831 -1.488105
2008-10-31 14:56:39 51°18.615 2°47.218 -999 0.066186 0.400324 -1.488105
2008-10-31 14:57:38 51°18.485 2°47.378 -999 0.10478 0.645375 -1.488105
2008-10-31 14:58:39 51°18.349 2°47.545 -999 0.071332 0.432591 -1.488105
2008-10-31 14:59:38 51°18.219 2°47.706 -999 0.070715 0.428675 -1.488105
2008-10-31 15:00:38 51°18.084 2°47.866 -999 0.066804 0.404143 -1.488105
2008-10-31 15:01:39 51°17.947 2°48.025 -999 0.074934 0.455225 -1.453281
2008-10-31 15:02:39 51°17.812 2°48.181 -999 0.071229 0.431848 -1.488105
2008-10-31 15:03:39 51°17.677 2°48.341 -999 0.068451 0.414374 -1.488105
2008-10-31 15:04:39 51°17.541 2°48.505 -999 0.05713 0.343655 -1.488105
2008-10-31 15:05:38 51°17.406 2°48.673 -999 0.057645 0.346817 -1.488105
2008-10-31 15:06:38 51°17.268 2°48.841 -999 0.071435 0.432966 -1.488105
2008-10-31 15:07:38 51°17.13 2°49.01 -999 0.070715 0.428414 -1.488105
2008-10-31 15:08:39 51°16.991 2°49.179 -999 0.071332 0.432284 -1.488105
2008-10-31 15:09:38 51°16.858 2°49.347 -999 0.059394 0.357574 -1.488105
2008-10-31 15:10:39 51°16.72 2°49.518 -999 0.058262 0.3505 -1.488105
2008-10-31 15:11:39 51°16.583 2°49.691 -999 0.06948 0.420551 -1.488105
2008-10-31 15:12:38 51°16.444 2°49.862 -999 0.066907 0.404363 -1.488105
2008-10-31 15:13:38 51°16.295 2°50.038 -999 0.063305 0.38182 -1.488105
2008-10-31 15:14:39 51°16.146 2°50.229 -999 0.059703 0.359241 -1.488105
2008-10-31 15:15:38 51°16.04 2°50.479 -999 0.0596 0.358674 -1.488105
2008-10-31 15:16:38 51°15.944 2°50.754 -999 0.058777 0.353556 -1.488105
2008-10-31 15:17:39 51°15.85 2°51.034 -999 0.054455 0.326723 -1.488105
2008-10-31 15:18:38 51°15.785 2°51.326 -999 0.065466 0.395246 -1.488105
2008-10-31 15:19:38 51°15.719 2°51.624 -999 0.058983 0.354785 -1.488105
2008-10-31 15:20:38 51°15.646 2°51.916 -999 0.061144 0.368162 -1.488105
2008-10-31 15:21:38 51°15.572 2°52.206 -999 0.059086 0.35536 -1.488105
2008-10-31 15:22:38 51°15.484 2°52.485 -999 0.059086 0.355324 -1.488105
2008-10-31 15:23:38 51°15.378 2°52.746 -999 0.06135 0.369421 -1.488105
2008-10-31 15:24:38 51°15.265 2°53.022 -999 0.06773 0.409236 -1.488105
2008-10-31 15:25:39 51°15.15 2°53.304 -999 0.070509 0.426612 -1.488105
2008-10-31 15:26:38 51°15.038 2°53.574 -999 0.061967 0.373168 -1.488105
2008-10-31 15:27:38 51°14.916 2°53.841 -999 0.058571 0.352064 -1.488105
2008-10-31 15:28:38 51°14.801 2°54.112 -999 0.058365 0.350744 -1.488105
2008-10-31 15:29:39 51°14.683 2°54.387 -999 0.059806 0.359693 -1.488105
2008-10-31 15:30:39 51°14.561 2°54.65 -999 0.090371 0.552067 -1.488105
2008-10-31 15:31:39 51°14.438 2°54.915 -999 0.060629 0.364709 -1.453281
2008-10-31 15:32:39 51°14.308 2°55.161 -999 0.068759 0.415588 -1.488105
2008-10-31 15:33:39 51°14.172 2°55.368 -999 0.079051 0.48021 -1.488105
2008-10-31 15:34:42 51°14.059 2°55.466 -999 0.063614 0.383345 -1.488105